Time;durP1;ratioP1;P1;durP2;ratioP2;P2;SDS_P1;SDS_P2;PMS_P1;PMS_P2;Temp;Humidity;BMP_temperature;BMP_pressure;BME280_temperature;BME280_humidity;BME280_pressure;Samples;Min_cycle;Max_cycle;Signal;HPM_P1;HPM_P2
2022/12/15 00:38:55;;;;;;;90.78;33.92;;;;;;;;;;4994708;28;20101;-59
2022/12/15 00:41:21;;;;;;;85.53;35.03;;;;;;;;;;4993586;28;20152;-59
2022/12/15 00:43:46;;;;;;;94.88;35.60;;;;;;;;;;4991938;28;20042;-60
2022/12/15 00:48:56;;;;;;;90.65;33.03;;;;;;;;;;4995214;28;20032;-60
2022/12/15 01:21:24;;;;;;;82.05;32.03;;;;;;;;;;4993465;28;20383;-59
2022/12/15 01:23:49;;;;;;;78.78;32.10;;;;;;;;;;4994235;28;20544;-59
2022/12/15 01:26:15;;;;;;;76.20;31.95;;;;;;;;;;4994395;28;20124;-59
2022/12/15 01:28:40;;;;;;;89.05;33.65;;;;;;;;;;4994544;28;20061;-59
2022/12/15 01:31:10;;;;;;;86.45;34.53;;;;;;;;;;4995102;28;20133;-59
2022/12/15 01:33:35;;;;;;;82.30;33.55;;;;;;;;;;4993387;28;20053;-59
2022/12/15 01:36:01;;;;;;;82.82;33.00;;;;;;;;;;4995825;28;20236;-60
2022/12/15 01:38:27;;;;;;;80.70;31.80;;;;;;;;;;4993214;28;20520;-60
2022/12/15 01:40:58;;;;;;;82.93;34.10;;;;;;;;;;4994196;28;20417;-59
2022/12/15 01:43:25;;;;;;;82.05;33.22;;;;;;;;;;4997679;28;20031;-60
2022/12/15 01:45:50;;;;;;;;;;;;;;;;;;4994390;28;20039;-59
2022/12/15 01:48:36;;;;;;;77.05;30.25;;;;;;;;;;4993372;28;19910;-59
2022/12/15 01:51:09;;;;;;;71.90;28.15;;;;;;;;;;4988906;28;20054;-59
2022/12/15 01:53:37;;;;;;;70.78;30.30;;;;;;;;;;4993984;28;20049;-60
2022/12/15 01:56:04;;;;;;;73.97;30.65;;;;;;;;;;4993086;28;20432;-59
2022/12/15 01:58:29;;;;;;;80.38;30.80;;;;;;;;;;4993412;28;20030;-59
2022/12/15 02:00:55;;;;;;;78.45;31.48;;;;;;;;;;4991936;28;20052;-60
2022/12/15 02:03:21;;;;;;;86.80;34.83;;;;;;;;;;4994447;28;20088;-58
2022/12/15 02:05:46;;;;;;;87.05;33.53;;;;;;;;;;4992152;28;20490;-59
2022/12/15 02:08:11;;;;;;;91.63;34.65;;;;;;;;;;4993107;28;20032;-60
2022/12/15 02:10:56;;;;;;;94.80;37.15;;;;;;;;;;4992585;28;20057;-59
2022/12/15 02:13:24;;;;;;;81.95;33.17;;;;;;;;;;4993668;28;20035;-60
2022/12/15 02:15:55;;;;;;;91.30;33.50;;;;;;;;;;4995292;28;20080;-59
2022/12/15 02:18:26;;;;;;;79.68;32.00;;;;;;;;;;4995190;28;20491;-59
2022/12/15 02:20:57;;;;;;;86.10;34.72;;;;;;;;;;4994221;28;20058;-60
2022/12/15 02:23:31;;;;;;;87.80;35.85;;;;;;;;;;4997527;28;20030;-60
2022/12/15 02:25:56;;;;;;;80.65;33.47;;;;;;;;;;4994144;28;20060;-59
2022/12/15 02:28:31;;;;;;;83.22;35.45;;;;;;;;;;4990515;28;20766;-60
2022/12/15 02:33:51;;;;;;;80.45;31.83;;;;;;;;;;4995015;28;20038;-59
2022/12/15 02:36:16;;;;;;;;;;;;;;;;;;4991748;28;20031;-59
2022/12/15 02:38:42;;;;;;;70.73;28.70;;;;;;;;;;4990268;28;19925;-59
2022/12/15 02:41:26;;;;;;;77.25;31.73;;;;;;;;;;4991816;28;20280;-59
2022/12/15 02:43:51;;;;;;;81.95;32.75;;;;;;;;;;4999402;28;20603;-62
2022/12/15 02:46:30;;;;;;;90.93;34.63;;;;;;;;;;4994127;28;20116;-60
2022/12/15 02:49:11;;;;;;;83.68;33.78;;;;;;;;;;4991956;28;20649;-60
2022/12/15 02:51:36;;;;;;;77.80;31.05;;;;;;;;;;4994398;28;20037;-60
2022/12/15 02:54:20;;;;;;;89.00;33.70;;;;;;;;;;4991467;28;20045;-59
2022/12/15 02:56:58;;;;;;;75.53;32.30;;;;;;;;;;4998999;28;20033;-59
2022/12/15 02:59:26;;;;;;;91.63;34.40;;;;;;;;;;4990526;28;20058;-59
2022/12/15 03:01:54;;;;;;;78.45;32.30;;;;;;;;;;4992025;28;20041;-60
2022/12/15 03:04:20;;;;;;;86.47;33.17;;;;;;;;;;4995804;28;20034;-61
2022/12/15 03:06:52;;;;;;;78.07;33.03;;;;;;;;;;4998887;28;20034;-59
2022/12/15 03:09:17;;;;;;;85.70;35.65;;;;;;;;;;4997779;28;20128;-59
2022/12/15 03:11:43;;;;;;;85.90;33.50;;;;;;;;;;4997577;28;20128;-59
2022/12/15 03:14:08;;;;;;;90.55;34.65;;;;;;;;;;4996090;28;20037;-58
2022/12/15 03:16:33;;;;;;;91.28;34.58;;;;;;;;;;4996355;28;20381;-59
2022/12/15 03:18:58;;;;;;;95.03;35.58;;;;;;;;;;5002994;28;20053;-59
2022/12/15 03:21:24;;;;;;;72.32;31.25;;;;;;;;;;4997234;28;20122;-59
2022/12/15 03:23:49;;;;;;;88.28;35.10;;;;;;;;;;4997614;28;20034;-59
2022/12/15 03:26:15;;;;;;;77.30;31.10;;;;;;;;;;4997634;28;20022;-59
2022/12/15 03:28:41;;;;;;;78.85;33.17;;;;;;;;;;4998100;28;20037;-60
2022/12/15 03:31:06;;;;;;;80.43;31.70;;;;;;;;;;4996727;28;20038;-59
2022/12/15 03:33:32;;;;;;;73.40;31.23;;;;;;;;;;4996814;28;20036;-60
2022/12/15 03:35:58;;;;;;;84.78;34.33;;;;;;;;;;4998223;28;20038;-59
2022/12/15 03:38:24;;;;;;;86.85;34.45;;;;;;;;;;4994581;28;20030;-60
2022/12/15 03:40:49;;;;;;;78.65;32.30;;;;;;;;;;4996076;28;20432;-58
2022/12/15 03:43:14;;;;;;;81.38;32.90;;;;;;;;;;4996161;28;20033;-59
2022/12/15 03:45:40;;;;;;;82.30;32.97;;;;;;;;;;4999133;28;20443;-59
2022/12/15 03:48:05;;;;;;;80.30;33.22;;;;;;;;;;4998938;28;20038;-59
2022/12/15 03:50:31;;;;;;;83.50;32.75;;;;;;;;;;4995380;28;20378;-59
2022/12/15 03:53:00;;;;;;;86.05;33.20;;;;;;;;;;5000108;28;20125;-58
2022/12/15 03:55:27;;;;;;;72.95;29.85;;;;;;;;;;4995889;28;20034;-58
2022/12/15 03:57:52;;;;;;;;;;;;;;;;;;4994735;28;20570;-59
2022/12/15 04:00:18;;;;;;;73.13;26.27;;;;;;;;;;4997896;28;19920;-59
2022/12/15 04:02:45;;;;;;;76.75;28.95;;;;;;;;;;4990989;28;20057;-59
2022/12/15 04:05:20;;;;;;;79.10;27.63;;;;;;;;;;4994707;28;20030;-59
2022/12/15 04:07:46;;;;;;;66.35;25.15;;;;;;;;;;4995182;28;20059;-60
2022/12/15 04:10:11;;;;;;;72.28;25.70;;;;;;;;;;5001732;28;20034;-59
2022/12/15 04:12:40;;;;;;;71.03;27.02;;;;;;;;;;4996945;28;20033;-59
2022/12/15 04:15:06;;;;;;;70.15;25.42;;;;;;;;;;5008093;28;20495;-59
2022/12/15 04:17:32;;;;;;;69.80;26.47;;;;;;;;;;4998604;28;20030;-59
2022/12/15 04:20:18;;;;;;;74.45;27.02;;;;;;;;;;5003050;28;20370;-60
2022/12/15 04:22:44;;;;;;;66.30;25.42;;;;;;;;;;5000996;28;20042;-61
2022/12/15 05:33:48;;;;;;;65.13;26.13;;;;;;;;;;4994707;28;20042;-60
2022/12/15 05:36:13;;;;;;;69.70;26.92;;;;;;;;;;4994323;28;20033;-59
2022/12/15 05:38:38;;;;;;;76.65;28.60;;;;;;;;;;4998937;28;20041;-59
2022/12/15 05:41:04;;;;;;;68.93;27.75;;;;;;;;;;4992706;28;20030;-60
2022/12/15 05:43:32;;;;;;;68.00;26.42;;;;;;;;;;4994541;28;20145;-59
2022/12/15 05:46:01;;;;;;;68.32;26.83;;;;;;;;;;4996482;28;20133;-60
2022/12/15 05:48:26;;;;;;;70.90;27.63;;;;;;;;;;4992535;28;20070;-59
2022/12/15 05:50:52;;;;;;;75.85;27.58;;;;;;;;;;4991749;28;20397;-60
2022/12/15 05:53:17;;;;;;;71.10;25.45;;;;;;;;;;4992840;28;20923;-59
2022/12/15 05:55:42;;;;;;;68.60;26.15;;;;;;;;;;4992488;28;20030;-59
2022/12/15 05:58:07;;;;;;;67.38;25.98;;;;;;;;;;4992973;28;20101;-60
2022/12/15 06:00:33;;;;;;;73.63;26.67;;;;;;;;;;4995214;28;20030;-60
2022/12/15 06:02:58;;;;;;;68.05;25.20;;;;;;;;;;4992567;28;20069;-60
2022/12/15 06:05:23;;;;;;;64.82;25.08;;;;;;;;;;4993540;28;20874;-59
2022/12/15 06:07:49;;;;;;;66.28;25.40;;;;;;;;;;4991938;28;20093;-59
2022/12/15 06:10:14;;;;;;;64.78;24.73;;;;;;;;;;4993431;28;20365;-59
2022/12/15 06:12:39;;;;;;;64.35;25.52;;;;;;;;;;4994650;28;20076;-60
2022/12/15 06:15:05;;;;;;;65.13;25.30;;;;;;;;;;4994042;28;20584;-60
2022/12/15 06:17:30;;;;;;;71.18;27.00;;;;;;;;;;4994531;28;20040;-59
2022/12/15 06:19:56;;;;;;;68.53;26.60;;;;;;;;;;4990829;28;20034;-59
2022/12/15 06:22:21;;;;;;;67.93;27.50;;;;;;;;;;4991969;28;20063;-59
2022/12/15 06:24:46;;;;;;;69.22;27.00;;;;;;;;;;4992091;28;20435;-58
2022/12/15 06:27:12;;;;;;;63.17;27.15;;;;;;;;;;4994657;28;20136;-59
2022/12/15 06:29:37;;;;;;;65.00;27.05;;;;;;;;;;4998735;28;20030;-60
2022/12/15 06:32:03;;;;;;;75.20;29.95;;;;;;;;;;4992485;28;20026;-60
2022/12/15 06:34:28;;;;;;;70.63;28.88;;;;;;;;;;4994283;28;20035;-60
2022/12/15 06:36:53;;;;;;;73.57;29.00;;;;;;;;;;4995364;28;20033;-59
2022/12/15 06:39:19;;;;;;;72.80;28.13;;;;;;;;;;5003643;28;20696;-60
2022/12/15 06:41:44;;;;;;;78.75;30.27;;;;;;;;;;4991489;28;20037;-58
2022/12/15 06:44:14;;;;;;;77.93;28.20;;;;;;;;;;4996038;28;21173;-60
2022/12/15 06:46:39;;;;;;;70.40;28.60;;;;;;;;;;4994728;28;20037;-57
2022/12/15 06:49:04;;;;;;;76.10;30.35;;;;;;;;;;4994776;28;20026;-59
2022/12/15 06:51:31;;;;;;;78.18;31.02;;;;;;;;;;4994741;28;20113;-59
2022/12/15 06:53:56;;;;;;;77.50;29.42;;;;;;;;;;4995629;28;20035;-59
2022/12/15 06:56:23;;;;;;;74.65;29.75;;;;;;;;;;4995593;28;20362;-60
2022/12/15 06:58:49;;;;;;;75.68;27.88;;;;;;;;;;4993749;28;20042;-59
2022/12/15 07:01:14;;;;;;;62.40;25.92;;;;;;;;;;4994524;28;20491;-59
2022/12/15 07:03:40;;;;;;;78.63;29.23;;;;;;;;;;4993839;28;20037;-60
2022/12/15 07:06:07;;;;;;;75.30;29.75;;;;;;;;;;4995409;28;20049;-60
2022/12/15 07:08:32;;;;;;;73.80;28.75;;;;;;;;;;4993560;28;20411;-58
2022/12/15 07:10:58;;;;;;;73.15;28.17;;;;;;;;;;4996267;28;20121;-59
2022/12/15 07:13:24;;;;;;;68.75;25.77;;;;;;;;;;4994295;28;20042;-60
2022/12/15 07:15:50;;;;;;;68.53;28.60;;;;;;;;;;4989319;28;20030;-59
2022/12/15 07:18:15;;;;;;;75.78;28.83;;;;;;;;;;5012213;28;20139;-60
2022/12/15 07:20:41;;;;;;;74.28;28.00;;;;;;;;;;5001639;28;20133;-59
2022/12/15 07:23:08;;;;;;;76.22;29.42;;;;;;;;;;5000087;28;20026;-58
2022/12/15 07:25:36;;;;;;;72.28;28.48;;;;;;;;;;4993207;28;20044;-58
2022/12/15 07:28:02;;;;;;;60.80;25.38;;;;;;;;;;4995238;28;20072;-60
2022/12/15 07:30:27;;;;;;;72.43;29.25;;;;;;;;;;4992621;28;20061;-60
2022/12/15 07:32:53;;;;;;;69.53;28.67;;;;;;;;;;4999722;28;20810;-60
2022/12/15 07:35:18;;;;;;;70.40;28.85;;;;;;;;;;4993953;28;20125;-60
2022/12/15 07:37:43;;;;;;;70.53;26.67;;;;;;;;;;5000877;28;20062;-61
2022/12/15 07:40:09;;;;;;;64.90;27.45;;;;;;;;;;5008865;28;20037;-59
2022/12/15 07:42:34;;;;;;;68.40;26.98;;;;;;;;;;4996743;28;20077;-60
2022/12/15 07:45:00;;;;;;;65.35;27.55;;;;;;;;;;4995058;28;20034;-60
2022/12/15 07:47:26;;;;;;;66.05;27.02;;;;;;;;;;4994890;28;20673;-59
2022/12/15 07:49:52;;;;;;;69.38;26.73;;;;;;;;;;4999623;28;20065;-60
2022/12/15 07:52:17;;;;;;;68.00;27.13;;;;;;;;;;4995484;28;20085;-59
2022/12/15 07:54:42;;;;;;;71.13;27.75;;;;;;;;;;5005267;28;20026;-59
2022/12/15 07:57:08;;;;;;;68.03;27.05;;;;;;;;;;4998420;28;20531;-59
2022/12/15 07:59:33;;;;;;;72.63;27.77;;;;;;;;;;4999142;28;20084;-59
2022/12/15 08:01:59;;;;;;;69.68;28.67;;;;;;;;;;4998629;28;20076;-60
2022/12/15 08:04:25;;;;;;;68.93;26.98;;;;;;;;;;5013378;28;20492;-58
2022/12/15 08:06:52;;;;;;;69.95;27.60;;;;;;;;;;4997058;28;20136;-60
2022/12/15 08:09:18;;;;;;;61.60;26.35;;;;;;;;;;5000665;28;20046;-60
2022/12/15 08:11:43;;;;;;;59.60;25.98;;;;;;;;;;4999908;28;20042;-59
2022/12/15 08:14:08;;;;;;;59.75;25.80;;;;;;;;;;4992482;28;20034;-59
2022/12/15 08:16:35;;;;;;;59.88;25.40;;;;;;;;;;4996215;28;20034;-59
2022/12/15 08:19:00;;;;;;;72.97;26.73;;;;;;;;;;4998210;28;20038;-59
2022/12/15 08:21:26;;;;;;;65.22;27.05;;;;;;;;;;4994653;28;20038;-59
2022/12/15 08:23:51;;;;;;;70.78;27.98;;;;;;;;;;4991903;28;20611;-59
2022/12/15 08:26:17;;;;;;;65.30;26.45;;;;;;;;;;4993047;28;20797;-59
2022/12/15 08:28:43;;;;;;;61.50;26.10;;;;;;;;;;4994551;28;20031;-59
2022/12/15 08:31:10;;;;;;;64.68;27.65;;;;;;;;;;4997350;28;20032;-59
2022/12/15 08:33:35;;;;;;;64.77;27.90;;;;;;;;;;4996693;28;20492;-59
2022/12/15 08:36:02;;;;;;;69.78;27.48;;;;;;;;;;4993533;28;20279;-59
2022/12/15 08:38:28;;;;;;;59.38;26.48;;;;;;;;;;4997405;28;20879;-59
2022/12/15 08:40:53;;;;;;;71.57;28.52;;;;;;;;;;4995680;28;20042;-59
2022/12/15 08:43:19;;;;;;;63.28;26.73;;;;;;;;;;4996251;28;20114;-59
2022/12/15 08:45:44;;;;;;;68.22;28.65;;;;;;;;;;4995660;28;20021;-59
2022/12/15 08:48:09;;;;;;;60.50;27.88;;;;;;;;;;4995914;28;20026;-60
2022/12/15 08:50:35;;;;;;;61.40;27.05;;;;;;;;;;4995850;28;20034;-59
2022/12/15 08:53:00;;;;;;;65.15;29.63;;;;;;;;;;4994170;28;20037;-60
2022/12/15 08:55:25;;;;;;;66.00;28.35;;;;;;;;;;4992199;28;20832;-59
2022/12/15 08:57:52;;;;;;;62.55;27.27;;;;;;;;;;4994194;28;20041;-59
2022/12/15 09:00:18;;;;;;;72.32;30.70;;;;;;;;;;4995072;28;20042;-59
2022/12/15 09:02:43;;;;;;;81.90;33.92;;;;;;;;;;4996122;28;20045;-60
2022/12/15 09:05:08;;;;;;;69.70;29.27;;;;;;;;;;5000090;28;20030;-59
2022/12/15 09:07:34;;;;;;;62.13;27.15;;;;;;;;;;4993655;28;20044;-60
2022/12/15 09:09:59;;;;;;;64.60;26.95;;;;;;;;;;4992940;28;20654;-60
2022/12/15 09:12:25;;;;;;;63.72;27.38;;;;;;;;;;4995010;28;20041;-60
2022/12/15 09:14:50;;;;;;;63.97;26.73;;;;;;;;;;4994704;28;20034;-59
2022/12/15 09:17:15;;;;;;;65.05;27.10;;;;;;;;;;4994688;28;20088;-59
2022/12/15 09:19:41;;;;;;;60.78;26.60;;;;;;;;;;4996996;28;20088;-59
2022/12/15 09:22:06;;;;;;;61.42;26.95;;;;;;;;;;4994155;28;20042;-59
2022/12/15 09:24:32;;;;;;;56.05;25.30;;;;;;;;;;5008247;28;20033;-59
2022/12/15 09:26:57;;;;;;;54.35;24.60;;;;;;;;;;4992658;28;20030;-59
2022/12/15 09:29:22;;;;;;;59.15;25.95;;;;;;;;;;4993658;28;20034;-60
2022/12/15 09:31:48;;;;;;;55.03;26.65;;;;;;;;;;4993034;28;20049;-60
2022/12/15 09:34:14;;;;;;;64.80;27.05;;;;;;;;;;4994109;28;20030;-60
2022/12/15 09:36:40;;;;;;;57.95;26.17;;;;;;;;;;4994490;28;20854;-59
2022/12/15 09:39:06;;;;;;;56.55;25.17;;;;;;;;;;4996489;28;20034;-59
2022/12/15 09:41:33;;;;;;;59.90;24.75;;;;;;;;;;5001280;28;20060;-59
2022/12/15 09:44:01;;;;;;;54.60;24.80;;;;;;;;;;4995791;28;20041;-59
2022/12/15 09:46:27;;;;;;;56.38;25.27;;;;;;;;;;4998925;28;20038;-59
2022/12/15 09:48:54;;;;;;;60.35;26.98;;;;;;;;;;4994786;28;20042;-60
2022/12/15 09:51:24;;;;;;;54.38;24.55;;;;;;;;;;4992229;28;20053;-59
2022/12/15 09:53:50;;;;;;;59.90;25.80;;;;;;;;;;4976184;28;20072;-59
2022/12/15 09:56:20;;;;;;;56.53;26.73;;;;;;;;;;4993476;28;20027;-59
2022/12/15 09:58:54;;;;;;;53.33;24.52;;;;;;;;;;4994752;28;20038;-59
2022/12/15 10:01:20;;;;;;;56.05;25.58;;;;;;;;;;4994357;28;20045;-60
2022/12/15 10:03:58;;;;;;;55.33;26.02;;;;;;;;;;4993238;28;20456;-59
2022/12/15 10:06:39;;;;;;;59.83;26.45;;;;;;;;;;4992416;28;20507;-59
2022/12/15 10:09:15;;;;;;;62.13;26.40;;;;;;;;;;4994406;28;20038;-59
2022/12/15 10:11:40;;;;;;;61.60;26.42;;;;;;;;;;4991742;28;20030;-60
2022/12/15 10:14:15;;;;;;;61.55;29.25;;;;;;;;;;4992782;28;20044;-59
2022/12/15 10:16:53;;;;;;;61.53;27.15;;;;;;;;;;4992799;28;20045;-59
2022/12/15 10:19:32;;;;;;;56.38;27.02;;;;;;;;;;4994490;28;20239;-59
2022/12/15 10:21:58;;;;;;;84.18;34.05;;;;;;;;;;4994071;28;20033;-59
2022/12/15 10:24:27;;;;;;;61.65;27.15;;;;;;;;;;4992458;28;20034;-59
2022/12/15 10:26:57;;;;;;;65.57;30.08;;;;;;;;;;4995441;28;20042;-59
2022/12/15 10:29:26;;;;;;;59.30;25.52;;;;;;;;;;4994283;28;20034;-59
2022/12/15 10:31:58;;;;;;;57.85;27.67;;;;;;;;;;4995218;28;20061;-59
2022/12/15 10:34:35;;;;;;;60.25;25.23;;;;;;;;;;4993572;28;20038;-59
2022/12/15 10:37:00;;;;;;;54.70;26.20;;;;;;;;;;4990415;28;20038;-59
2022/12/15 10:39:39;;;;;;;52.05;24.85;;;;;;;;;;4993289;28;20506;-59
2022/12/15 10:42:17;;;;;;;56.35;24.85;;;;;;;;;;4992782;28;20040;-59
2022/12/15 10:44:43;;;;;;;53.17;24.42;;;;;;;;;;4995582;28;20052;-59
2022/12/15 10:47:10;;;;;;;59.58;25.98;;;;;;;;;;4997222;28;20057;-60
2022/12/15 10:49:36;;;;;;;59.08;26.60;;;;;;;;;;4994554;28;20113;-59
2022/12/15 10:52:01;;;;;;;59.17;26.70;;;;;;;;;;4994466;28;20040;-59
2022/12/15 10:54:30;;;;;;;55.60;24.45;;;;;;;;;;4993100;28;20072;-59
2022/12/15 10:57:01;;;;;;;56.08;24.90;;;;;;;;;;4992251;28;20501;-59
2022/12/15 10:59:32;;;;;;;60.20;25.77;;;;;;;;;;4999525;28;20117;-60
2022/12/15 11:02:16;;;;;;;64.05;30.08;;;;;;;;;;4987268;28;20034;-59
2022/12/15 11:04:53;;;;;;;67.03;29.70;;;;;;;;;;4992559;28;20022;-59
2022/12/15 11:07:18;;;;;;;63.72;28.77;;;;;;;;;;4995284;28;20067;-60
2022/12/15 11:09:45;;;;;;;65.57;28.42;;;;;;;;;;4991331;28;20044;-59
2022/12/15 11:14:59;;;;;;;57.15;26.25;;;;;;;;;;4991588;28;20038;-60
2022/12/15 11:17:32;;;;;;;59.58;25.88;;;;;;;;;;4997739;28;20404;-59
2022/12/15 11:19:59;;;;;;;57.00;25.20;;;;;;;;;;4991220;28;20496;-60
2022/12/15 11:22:48;;;;;;;56.33;25.45;;;;;;;;;;4993021;28;20030;-58
2022/12/15 11:25:30;;;;;;;58.35;25.52;;;;;;;;;;4993373;28;20066;-59
2022/12/15 11:27:58;;;;;;;53.25;25.27;;;;;;;;;;5002706;28;20074;-59
2022/12/15 11:30:25;;;;;;;60.05;26.60;;;;;;;;;;4996877;28;20033;-59
2022/12/15 11:32:54;;;;;;;60.08;26.90;;;;;;;;;;4998881;28;20029;-59
2022/12/15 11:35:26;;;;;;;57.70;25.45;;;;;;;;;;4996007;28;20034;-59
2022/12/15 11:38:02;;;;;;;62.25;25.75;;;;;;;;;;4997751;28;20062;-59
2022/12/15 11:40:41;;;;;;;53.38;23.45;;;;;;;;;;4993429;28;20034;-59
2022/12/15 11:43:25;;;;;;;54.28;24.63;;;;;;;;;;4995191;28;20121;-59
2022/12/15 11:46:09;;;;;;;52.85;24.55;;;;;;;;;;4993865;28;20049;-59
2022/12/15 11:48:58;;;;;;;56.35;23.95;;;;;;;;;;4983652;28;20037;-58
2022/12/15 11:51:32;;;;;;;59.38;27.15;;;;;;;;;;4986865;28;20050;-58
2022/12/15 11:54:05;;;;;;;57.30;24.58;;;;;;;;;;4996036;28;20053;-58
2022/12/15 11:56:49;;;;;;;59.70;26.95;;;;;;;;;;5002556;28;20030;-58
2022/12/15 11:59:33;;;;;;;52.58;22.50;;;;;;;;;;4998000;28;20116;-59
2022/12/15 12:02:13;;;;;;;52.83;24.00;;;;;;;;;;4997172;28;20085;-60
2022/12/15 12:04:56;;;;;;;58.00;23.88;;;;;;;;;;4993950;28;20033;-59
2022/12/15 12:07:31;;;;;;;50.40;22.48;;;;;;;;;;4994824;28;20084;-59
2022/12/15 12:10:16;;;;;;;55.53;23.88;;;;;;;;;;5000836;28;20049;-58
2022/12/15 12:12:48;;;;;;;58.50;24.10;;;;;;;;;;4980452;28;20033;-59
2022/12/15 12:15:34;;;;;;;59.97;25.60;;;;;;;;;;4998411;28;20491;-59
2022/12/15 12:18:02;;;;;;;58.53;25.17;;;;;;;;;;5001286;28;20489;-61
2022/12/15 12:20:34;;;;;;;57.33;25.63;;;;;;;;;;4995105;28;20045;-60
2022/12/15 12:23:01;;;;;;;59.20;26.42;;;;;;;;;;4996071;28;20034;-58
2022/12/15 12:25:27;;;;;;;55.42;25.50;;;;;;;;;;4996498;28;20078;-61
2022/12/15 12:27:52;;;;;;;52.30;25.33;;;;;;;;;;4997295;28;20169;-60
2022/12/15 12:30:22;;;;;;;60.15;26.45;;;;;;;;;;4995213;28;20745;-59
2022/12/15 12:32:48;;;;;;;53.65;25.50;;;;;;;;;;4993968;28;20034;-59
2022/12/15 12:35:13;;;;;;;56.70;24.98;;;;;;;;;;4993963;28;20038;-59
2022/12/15 12:37:38;;;;;;;65.45;28.77;;;;;;;;;;4978920;28;20031;-59
2022/12/15 12:40:06;;;;;;;65.30;27.70;;;;;;;;;;4994129;28;20697;-59
2022/12/15 12:43:04;;;;;;;56.67;23.30;;;;;;;;;;4996168;28;20037;-59
2022/12/15 12:45:35;;;;;;;55.60;24.83;;;;;;;;;;4955494;28;20046;-59
2022/12/15 12:48:27;;;;;;;53.30;24.75;;;;;;;;;;4996297;28;20065;-59
2022/12/15 12:51:06;;;;;;;59.75;25.13;;;;;;;;;;4992076;28;20052;-59
2022/12/15 12:53:33;;;;;;;54.67;23.67;;;;;;;;;;4995883;28;20038;-59
2022/12/15 12:55:58;;;;;;;51.90;23.33;;;;;;;;;;4996312;28;20033;-59
2022/12/15 12:58:36;;;;;;;52.63;23.85;;;;;;;;;;4995516;28;20338;-58
2022/12/15 13:01:05;;;;;;;51.50;23.15;;;;;;;;;;4993512;28;20069;-59
2022/12/15 13:03:31;;;;;;;51.20;23.13;;;;;;;;;;4994568;28;20041;-59
2022/12/15 13:05:56;;;;;;;50.88;23.63;;;;;;;;;;4990296;28;20037;-58
2022/12/15 13:08:26;;;;;;;54.63;24.38;;;;;;;;;;4992302;28;20062;-59
2022/12/15 13:10:52;;;;;;;52.40;23.85;;;;;;;;;;4999450;28;20113;-59
2022/12/15 13:13:17;;;;;;;56.08;26.05;;;;;;;;;;4992870;28;20030;-59
2022/12/15 13:15:47;;;;;;;51.10;23.02;;;;;;;;;;4992988;28;21787;-58
2022/12/15 13:18:17;;;;;;;61.05;27.23;;;;;;;;;;4992633;28;20733;-59
2022/12/15 13:20:44;;;;;;;50.53;22.80;;;;;;;;;;4994953;28;20119;-58
2022/12/15 13:23:18;;;;;;;47.70;22.45;;;;;;;;;;4993069;28;20030;-58
2022/12/15 13:26:04;;;;;;;49.95;22.60;;;;;;;;;;4992655;28;20038;-60
2022/12/15 13:28:35;;;;;;;47.15;22.73;;;;;;;;;;4966013;28;20048;-58
2022/12/15 13:31:10;;;;;;;47.17;21.52;;;;;;;;;;4990218;28;20084;-59
2022/12/15 13:33:48;;;;;;;47.28;20.88;;;;;;;;;;4994691;28;20044;-58
2022/12/15 13:36:32;;;;;;;47.35;21.95;;;;;;;;;;4997402;28;20036;-60
2022/12/15 13:38:57;;;;;;;48.75;22.60;;;;;;;;;;4995368;28;20187;-61
2022/12/15 13:41:23;;;;;;;52.40;23.13;;;;;;;;;;4995923;28;20136;-60
2022/12/15 13:43:50;;;;;;;45.63;22.20;;;;;;;;;;4992057;28;20069;-59
2022/12/15 13:46:17;;;;;;;45.42;21.05;;;;;;;;;;4992867;28;20105;-59
2022/12/15 13:48:46;;;;;;;43.60;22.00;;;;;;;;;;4993792;28;20063;-58
2022/12/15 13:51:18;;;;;;;50.03;25.80;;;;;;;;;;4982986;28;20044;-59
2022/12/15 13:53:51;;;;;;;60.90;30.05;;;;;;;;;;4993624;28;20141;-59
2022/12/15 13:56:27;;;;;;;48.15;23.05;;;;;;;;;;4991391;28;20026;-58
2022/12/15 13:58:59;;;;;;;47.25;22.55;;;;;;;;;;4992936;28;20043;-58
2022/12/15 14:01:29;;;;;;;47.95;23.35;;;;;;;;;;4992453;28;20026;-58
2022/12/15 14:04:14;;;;;;;40.22;20.10;;;;;;;;;;4993710;28;20045;-59
2022/12/15 14:06:45;;;;;;;45.50;21.85;;;;;;;;;;4992757;28;20041;-59
2022/12/15 14:09:13;;;;;;;43.58;20.77;;;;;;;;;;4993592;28;20049;-59
2022/12/15 14:11:38;;;;;;;;;;;;;;;;;;4991911;28;20035;-59
2022/12/15 14:14:03;;;;;;;48.80;22.93;;;;;;;;;;4994772;28;19992;-59
2022/12/15 14:16:32;;;;;;;41.22;19.40;;;;;;;;;;4992119;28;20282;-59
2022/12/15 14:19:14;;;;;;;51.75;24.50;;;;;;;;;;4993533;28;20040;-59
2022/12/15 14:21:40;;;;;;;53.15;20.85;;;;;;;;;;5007246;28;20045;-59
2022/12/15 14:24:34;;;;;;;43.47;20.52;;;;;;;;;;4998996;28;20790;-59
2022/12/15 14:26:59;;;;;;;50.08;21.35;;;;;;;;;;4972826;28;20154;-59
2022/12/15 14:29:25;;;;;;;44.45;20.50;;;;;;;;;;4998464;28;20156;-58
2022/12/15 14:31:52;;;;;;;43.38;21.17;;;;;;;;;;4993080;28;20037;-59
2022/12/15 14:34:29;;;;;;;42.22;19.73;;;;;;;;;;4990067;28;20572;-59
2022/12/15 14:36:55;;;;;;;45.13;20.48;;;;;;;;;;4993138;28;20029;-59
2022/12/15 14:39:36;;;;;;;43.70;19.08;;;;;;;;;;4991918;28;20040;-58
2022/12/15 14:42:03;;;;;;;39.13;19.08;;;;;;;;;;4998881;28;20073;-59
2022/12/15 14:44:38;;;;;;;39.88;20.20;;;;;;;;;;4992146;28;20030;-58
2022/12/15 14:47:05;;;;;;;43.53;19.35;;;;;;;;;;4996522;28;20033;-58
2022/12/15 14:49:35;;;;;;;43.30;19.38;;;;;;;;;;4995651;28;20026;-58
2022/12/15 14:52:02;;;;;;;43.83;20.00;;;;;;;;;;4990831;28;20125;-59
2022/12/15 14:54:38;;;;;;;44.58;20.65;;;;;;;;;;4998372;28;20145;-59
2022/12/15 14:57:20;;;;;;;39.17;17.67;;;;;;;;;;4994478;28;20045;-61
2022/12/15 14:59:47;;;;;;;43.25;18.58;;;;;;;;;;4994543;28;20026;-58
2022/12/15 15:02:28;;;;;;;47.08;19.73;;;;;;;;;;4995322;28;20568;-59
2022/12/15 15:05:04;;;;;;;42.65;19.27;;;;;;;;;;4993124;28;20038;-59
2022/12/15 15:07:32;;;;;;;46.25;18.48;;;;;;;;;;5003807;28;20103;-60
2022/12/15 15:09:58;;;;;;;47.25;21.13;;;;;;;;;;4997996;28;20034;-59
2022/12/15 15:12:40;;;;;;;40.67;18.95;;;;;;;;;;4996254;28;20124;-59
2022/12/15 15:15:06;;;;;;;44.60;20.02;;;;;;;;;;4996598;28;20056;-60
2022/12/15 15:17:34;;;;;;;43.38;20.10;;;;;;;;;;4999509;28;20034;-60
2022/12/15 15:20:01;;;;;;;45.53;21.30;;;;;;;;;;4997023;28;20488;-60
2022/12/15 15:22:35;;;;;;;41.90;20.17;;;;;;;;;;4981688;28;20026;-62
2022/12/15 15:25:01;;;;;;;48.85;21.95;;;;;;;;;;4977033;28;20037;-60
2022/12/15 15:27:37;;;;;;;44.45;20.85;;;;;;;;;;4983723;28;20088;-60
2022/12/15 15:30:13;;;;;;;48.45;22.02;;;;;;;;;;4997936;28;20428;-59
2022/12/15 15:32:49;;;;;;;40.10;20.15;;;;;;;;;;4995774;28;20504;-59
2022/12/15 15:35:14;;;;;;;43.67;21.52;;;;;;;;;;4996296;28;20038;-59
2022/12/15 15:37:40;;;;;;;50.28;20.98;;;;;;;;;;4996479;28;20103;-59
2022/12/15 15:40:09;;;;;;;45.83;20.83;;;;;;;;;;4999603;28;20034;-59
2022/12/15 15:42:34;;;;;;;48.67;22.42;;;;;;;;;;5003580;28;20029;-59
2022/12/15 15:44:59;;;;;;;45.65;22.52;;;;;;;;;;4998065;28;20026;-59
2022/12/15 15:47:25;;;;;;;51.92;22.00;;;;;;;;;;4995734;28;20042;-59
2022/12/15 15:49:52;;;;;;;46.35;20.92;;;;;;;;;;4997877;28;20041;-59
2022/12/15 15:52:17;;;;;;;50.70;22.57;;;;;;;;;;5000343;28;20392;-59
2022/12/15 15:54:43;;;;;;;46.17;20.92;;;;;;;;;;4982109;28;20477;-59
2022/12/15 15:57:15;;;;;;;49.38;22.20;;;;;;;;;;4996626;28;20421;-59
2022/12/15 15:59:42;;;;;;;43.92;19.90;;;;;;;;;;4982480;28;20034;-59
2022/12/15 16:02:08;;;;;;;;;;;;;;;;;;4997097;28;20073;-59
2022/12/15 16:04:35;;;;;;;44.90;20.07;;;;;;;;;;4996937;28;19957;-59
2022/12/15 16:07:02;;;;;;;48.58;21.75;;;;;;;;;;4995410;28;20394;-59
2022/12/15 16:09:27;;;;;;;49.85;21.00;;;;;;;;;;4994031;28;20034;-59
2022/12/15 16:11:53;;;;;;;51.10;21.67;;;;;;;;;;4985632;28;20458;-60
2022/12/15 16:14:18;;;;;;;51.17;22.65;;;;;;;;;;4996660;28;20141;-58
2022/12/15 16:16:44;;;;;;;47.63;21.85;;;;;;;;;;4994552;28;20032;-60
2022/12/15 16:19:11;;;;;;;50.45;21.77;;;;;;;;;;4980465;28;20065;-60
2022/12/15 16:21:37;;;;;;;42.90;20.25;;;;;;;;;;4996829;28;20125;-59
2022/12/15 16:24:06;;;;;;;55.97;22.77;;;;;;;;;;4999720;28;20041;-59
2022/12/15 16:26:32;;;;;;;51.55;22.02;;;;;;;;;;4996934;28;20392;-58
2022/12/15 16:28:58;;;;;;;53.08;22.77;;;;;;;;;;4999933;28;20041;-58
2022/12/15 16:31:30;;;;;;;49.28;20.33;;;;;;;;;;4995523;28;20318;-58
2022/12/15 16:33:56;;;;;;;42.17;19.42;;;;;;;;;;4997743;28;20037;-58
2022/12/15 16:36:21;;;;;;;55.88;26.65;;;;;;;;;;4994802;28;20022;-59
2022/12/15 16:38:47;;;;;;;51.45;22.00;;;;;;;;;;4994750;28;20142;-59
2022/12/15 16:41:14;;;;;;;47.22;20.50;;;;;;;;;;4998331;28;20088;-59
2022/12/15 16:43:39;;;;;;;;;;;;;;;;;;4998301;28;20454;-59
2022/12/15 16:46:05;;;;;;;47.57;20.03;;;;;;;;;;4998086;28;20395;-59
2022/12/15 16:48:30;;;;;;;132.30;43.83;;;;;;;;;;4993681;28;20940;-59
2022/12/15 16:50:59;;;;;;;54.78;23.15;;;;;;;;;;4996447;28;20040;-59
2022/12/15 16:53:26;;;;;;;43.85;20.17;;;;;;;;;;4997064;28;20044;-59